Lobo

Go HERE for most recent data if this page is not up to date.

Jump to table bottom
Date/Time Temp deg F RH % 24 Hr Snow (in) Snow Depth (in) H2O (in)
01/24 06:00 20.7 40 0.1 40.8 0.00
01/24 05:00 21.1 43 0.0 40.6 0.00
01/24 04:00 21.7 41 0.0 40.6 0.00
01/24 03:00 22.4 40 0.0 40.6 0.00
01/24 02:00 23.0 38 -0.0 40.5 0.00
01/24 01:00 23.4 34 0.0 40.6 0.00
01/24 00:00 22.9 33 -0.0 40.6 0.00
01/23 23:00 25.0 35 -0.0 40.6 0.00
01/23 22:00 26.1 31 -0.0 40.5 0.00
01/23 21:00 26.7 29 -0.0 40.6 0.00
01/23 20:00 27.5 30 -0.0 40.7 0.00
01/23 19:00 28.2 27 -0.1 40.6 0.00
01/23 18:00 28.7 29 -0.2 40.5 0.00
01/23 17:00 29.0 30 -0.2 40.5 0.00
01/23 16:00 29.7 26 -0.2 40.6 0.00
01/23 15:00 31.2 26 -0.2 40.6 0.00
01/23 14:00 32.5 25 -0.3 40.4 0.00
01/23 13:00 32.2 26 -0.4 40.5 0.00
01/23 12:00 29.9 23 -0.3 40.6 0.00
01/23 11:00 28.9 49 -0.3 40.6 0.00
01/23 10:00 29.3 32 -0.2 40.9 0.00
01/23 09:00 28.4 31 -0.2 40.7 0.00
01/23 08:00 27.6 34 -0.0 41.2 0.00
01/23 07:00 25.9 47 -0.1 41.0 0.00
01/23 06:00 25.4 60 -0.0 41.0 0.00
01/23 05:00 26.0 55 -0.0 41.2 0.00
01/23 04:00 23.4 57 -0.0 41.1 0.00
01/23 03:00 22.4 65 -0.0 41.2 0.00
01/23 02:00 22.4 70 -0.0 41.1 0.00
01/23 01:00 21.3 71 0.0 41.4 0.00
01/23 00:00 20.7 81 0.2 41.6 0.00
.